createdAt,value
2023-03-02T00:04:33.814Z,11.25
2023-03-02T00:09:36.521Z,11.80
2023-03-02T00:14:38.471Z,12.55
2023-03-02T00:19:40.140Z,11.90
2023-03-02T00:24:41.593Z,11.88
2023-03-02T00:29:43.103Z,11.10
2023-03-02T00:34:45.279Z,11.30
2023-03-02T00:39:46.851Z,11.60
2023-03-02T00:44:48.522Z,11.77
2023-03-02T00:49:50.035Z,12.32
2023-03-02T00:54:51.639Z,11.75
2023-03-02T00:59:53.346Z,11.20
2023-03-02T01:04:54.999Z,11.00
2023-03-02T01:09:56.790Z,12.38
2023-03-02T01:14:58.797Z,12.25
2023-03-02T01:20:00.227Z,11.63
2023-03-02T01:25:01.828Z,11.40
2023-03-02T01:30:03.908Z,12.65
2023-03-02T01:35:06.133Z,12.65
2023-03-02T01:46:26.433Z,11.90
2023-03-02T01:51:33.514Z,11.40
2023-03-02T01:56:39.822Z,11.75
2023-03-02T02:01:45.050Z,12.05
2023-03-02T02:06:52.475Z,12.65
2023-03-02T02:11:53.938Z,11.88
2023-03-02T02:16:55.443Z,11.38
2023-03-02T02:21:56.956Z,12.27
2023-03-02T02:26:58.559Z,10.98
2023-03-02T02:32:17.896Z,11.10
2023-03-02T02:37:24.020Z,11.80
2023-03-02T02:42:30.327Z,11.10
2023-03-02T02:47:32.226Z,10.80
2023-03-02T02:52:33.901Z,10.65
2023-03-02T02:57:35.420Z,10.63
2023-03-02T03:02:44.292Z,11.30
2023-03-02T03:07:45.758Z,10.77
2023-03-02T03:12:47.554Z,10.55
2023-03-02T03:17:59.105Z,9.95
2023-03-02T03:23:00.818Z,10.35
2023-03-02T03:28:03.939Z,11.10
2023-03-02T03:33:05.585Z,10.55
2023-03-02T03:38:07.526Z,10.30
2023-03-02T03:43:09.715Z,10.02
2023-03-02T03:48:11.396Z,11.25
2023-03-02T03:53:12.791Z,10.13
2023-03-02T03:58:14.453Z,10.68
2023-03-02T04:03:16.746Z,9.40
2023-03-02T04:08:19.736Z,10.25
2023-03-02T04:13:21.121Z,10.95
2023-03-02T04:18:22.503Z,10.00
2023-03-02T04:23:23.915Z,10.13
2023-03-02T04:28:25.388Z,10.15
2023-03-02T04:33:26.781Z,9.75
2023-03-02T04:38:29.541Z,10.93
2023-03-02T04:43:34.553Z,10.50
2023-03-02T04:48:35.892Z,10.32
2023-03-02T04:53:37.253Z,9.93
2023-03-02T04:58:38.763Z,10.38
2023-03-02T05:03:40.501Z,9.68
2023-03-02T05:08:42.336Z,11.40
2023-03-02T05:13:44.108Z,9.75
2023-03-02T05:18:46.298Z,9.45
2023-03-02T05:23:47.951Z,9.82
2023-03-02T05:28:49.866Z,9.20
2023-03-02T05:33:51.553Z,9.70
2023-03-02T05:38:53.601Z,9.57
2023-03-02T05:43:55.340Z,9.05
2023-03-02T05:48:56.870Z,10.05
2023-03-02T05:53:58.485Z,8.38
2023-03-02T05:58:59.911Z,9.52
2023-03-02T06:04:01.386Z,9.35
2023-03-02T06:09:03.260Z,8.80
2023-03-02T06:14:05.018Z,8.30
2023-03-02T06:19:06.747Z,9.80
2023-03-02T06:24:08.343Z,9.43
2023-03-02T06:29:09.812Z,8.48
2023-03-02T06:34:11.445Z,9.18
2023-03-02T06:39:17.228Z,8.93
2023-03-02T06:44:18.864Z,8.38
2023-03-02T06:49:20.539Z,9.90
2023-03-02T06:54:24.069Z,11.52
2023-03-02T06:59:25.768Z,9.38
2023-03-02T07:04:31.062Z,9.18
2023-03-02T07:09:34.314Z,10.50
2023-03-02T07:14:37.510Z,9.45
2023-03-02T07:19:40.879Z,9.32
2023-03-02T07:24:44.670Z,11.45
2023-03-02T07:29:46.402Z,12.95
2023-03-02T07:34:48.153Z,9.68
2023-03-02T07:39:49.956Z,9.52
2023-03-02T07:44:54.947Z,9.80
2023-03-02T07:54:58.071Z,9.68
2023-03-02T08:00:00.675Z,10.77
2023-03-02T08:05:02.139Z,10.77
2023-03-02T08:10:04.815Z,11.20
2023-03-02T08:15:06.687Z,9.65
2023-03-02T08:20:09.939Z,9.43
2023-03-02T08:25:11.659Z,10.70
2023-03-02T08:30:13.879Z,10.40
2023-03-02T08:35:15.409Z,10.35
2023-03-02T08:40:16.940Z,10.73
2023-03-02T08:45:21.038Z,9.75
2023-03-02T08:50:22.510Z,10.07
2023-03-02T08:55:24.056Z,10.07
2023-03-02T09:00:25.563Z,9.60
2023-03-02T09:05:28.182Z,9.40
2023-03-02T09:10:29.637Z,16.00
2023-03-02T09:15:31.609Z,16.70
2023-03-02T09:20:34.537Z,10.57
2023-03-02T09:25:36.033Z,11.35
2023-03-02T09:30:37.841Z,10.35
2023-03-02T09:35:39.748Z,10.48
2023-03-02T09:40:56.813Z,10.90
2023-03-02T09:46:34.466Z,10.38
2023-03-02T09:51:42.318Z,10.07
2023-03-02T09:56:48.388Z,9.30
2023-03-02T10:02:18.026Z,10.65
2023-03-02T10:07:31.565Z,9.75
2023-03-02T10:12:53.919Z,10.98
2023-03-02T10:18:08.980Z,10.70
2023-03-02T10:23:33.245Z,9.38
2023-03-02T10:28:41.691Z,10.43
2023-03-02T10:33:44.507Z,8.80
2023-03-02T10:38:46.608Z,9.05
2023-03-02T10:43:52.455Z,10.60
2023-03-02T10:49:01.507Z,9.27
2023-03-02T10:54:05.436Z,10.35
2023-03-02T10:59:44.665Z,9.63
2023-03-02T11:04:46.277Z,9.38
2023-03-02T11:10:18.102Z,9.20
2023-03-02T11:15:52.675Z,9.90
2023-03-02T11:21:03.326Z,9.18
2023-03-02T11:26:32.758Z,9.50
2023-03-02T11:31:43.512Z,9.00
2023-03-02T11:37:03.497Z,8.30
2023-03-02T11:42:05.432Z,8.13
2023-03-02T11:47:12.344Z,7.95
2023-03-02T11:52:30.118Z,8.35
2023-03-02T11:57:38.623Z,8.70
2023-03-02T12:02:40.992Z,8.43
2023-03-02T12:07:44.259Z,8.15
2023-03-02T12:13:02.475Z,8.05
2023-03-02T12:18:21.148Z,7.72
2023-03-02T12:23:24.917Z,8.10
2023-03-02T12:28:33.130Z,7.95
2023-03-02T12:33:49.335Z,8.65
2023-03-02T12:39:09.609Z,7.88
2023-03-02T12:44:28.318Z,8.13
2023-03-02T12:49:41.793Z,7.35
2023-03-02T12:54:43.239Z,9.38
2023-03-02T12:59:55.824Z,7.47
2023-03-02T13:05:03.505Z,6.63
2023-03-02T13:10:20.102Z,6.80
2023-03-02T13:15:21.735Z,7.18
2023-03-02T13:20:26.808Z,7.43
2023-03-02T13:25:31.987Z,6.75
2023-03-02T13:30:37.113Z,7.28
2023-03-02T13:35:39.317Z,6.95
2023-03-02T13:40:46.932Z,7.35
2023-03-02T13:46:11.178Z,7.38
2023-03-02T13:51:16.489Z,6.95
2023-03-02T13:56:18.996Z,7.05
2023-03-02T14:01:20.531Z,7.35
2023-03-02T14:06:22.524Z,6.55
2023-03-02T14:11:24.272Z,6.70
2023-03-02T14:16:27.121Z,7.18
2023-03-02T14:21:29.086Z,15.98
2023-03-02T14:26:40.692Z,14.32
2023-03-02T14:31:42.151Z,7.75
2023-03-02T14:36:46.090Z,9.50
2023-03-02T14:41:53.855Z,11.38
2023-03-02T14:46:57.583Z,11.38
2023-03-02T14:52:05.855Z,7.95
2023-03-02T14:57:21.132Z,12.40
2023-03-02T15:02:26.959Z,11.68
2023-03-02T15:07:29.959Z,11.35
2023-03-02T15:12:31.480Z,9.93
2023-03-02T15:17:34.271Z,9.90
2023-03-02T15:22:35.938Z,10.35
2023-03-02T15:27:37.624Z,10.15
2023-03-02T15:32:39.173Z,11.25
2023-03-02T15:37:40.957Z,9.98
2023-03-02T15:42:42.434Z,9.23
2023-03-02T15:47:44.026Z,10.25
2023-03-02T15:52:45.466Z,9.20
2023-03-02T15:57:46.859Z,8.75
2023-03-02T16:02:49.729Z,8.77
2023-03-02T16:07:51.260Z,8.80
2023-03-02T16:12:52.757Z,8.68
2023-03-02T16:17:54.418Z,8.45
2023-03-02T16:22:55.824Z,9.20
2023-03-02T16:27:57.264Z,8.00
2023-03-02T16:33:02.602Z,7.53
2023-03-02T16:38:05.094Z,7.72
2023-03-02T16:43:09.025Z,8.60
2023-03-02T16:48:12.083Z,8.43
2023-03-02T16:53:15.382Z,7.45
2023-03-02T16:58:17.531Z,6.82
2023-03-02T17:03:18.919Z,6.60
2023-03-02T17:08:20.555Z,7.35
2023-03-02T17:13:22.362Z,6.28
2023-03-02T17:18:24.353Z,7.20
2023-03-02T17:23:27.331Z,6.40
2023-03-02T17:28:29.054Z,5.50
2023-03-02T17:33:30.648Z,5.82
2023-03-02T17:38:32.146Z,6.57
2023-03-02T17:43:35.386Z,5.78
2023-03-02T17:48:36.992Z,5.53
2023-03-02T17:53:38.663Z,5.82
2023-03-02T17:58:45.118Z,5.80
2023-03-02T18:03:47.300Z,5.00
2023-03-02T18:08:51.385Z,6.45
2023-03-02T18:13:58.173Z,5.95
2023-03-02T18:18:59.918Z,5.25
2023-03-02T18:24:03.540Z,5.47
2023-03-02T18:29:07.348Z,3.72
2023-03-02T18:39:30.265Z,6.47
2023-03-02T18:44:32.807Z,5.22
2023-03-02T18:49:34.381Z,5.38
2023-03-02T18:54:35.911Z,5.68
2023-03-02T18:59:37.891Z,5.55
2023-03-02T19:04:40.203Z,6.00
2023-03-02T19:09:42.417Z,5.45
2023-03-02T19:14:43.986Z,5.63
2023-03-02T19:19:45.554Z,5.40
2023-03-02T19:24:47.538Z,4.85
2023-03-02T19:29:48.935Z,5.25
2023-03-02T19:34:50.368Z,6.75
2023-03-02T19:39:52.230Z,5.25
2023-03-02T19:44:54.250Z,5.00
2023-03-02T19:49:56.210Z,5.75
2023-03-02T19:54:57.758Z,5.90
2023-03-02T19:59:59.432Z,6.30
2023-03-02T20:05:00.842Z,5.70
2023-03-02T20:10:02.721Z,5.78
2023-03-02T20:15:05.944Z,5.80
2023-03-02T20:20:07.994Z,4.82
2023-03-02T20:25:09.716Z,5.55
2023-03-02T20:30:15.371Z,5.18
2023-03-02T20:35:16.963Z,5.55
2023-03-02T20:40:18.861Z,6.25
2023-03-02T20:45:21.097Z,6.60
2023-03-02T20:50:26.825Z,5.28
2023-03-02T20:55:29.020Z,5.65
2023-03-02T21:00:31.826Z,7.25
2023-03-02T21:05:35.067Z,5.68
2023-03-02T21:10:38.585Z,5.78
2023-03-02T21:15:41.088Z,6.47
2023-03-02T21:20:42.653Z,6.15
2023-03-02T21:25:45.037Z,6.68
2023-03-02T21:30:46.555Z,6.55
2023-03-02T21:35:48.319Z,6.30
2023-03-02T21:40:49.756Z,7.20
2023-03-02T21:45:51.407Z,7.35
2023-03-02T21:50:54.178Z,7.28
2023-03-02T21:55:55.725Z,7.15
2023-03-02T22:00:57.155Z,7.03
2023-03-02T22:05:58.822Z,8.00
2023-03-02T22:11:00.272Z,7.82
2023-03-02T22:16:12.721Z,6.90
2023-03-02T22:21:31.256Z,7.03
2023-03-02T22:26:35.390Z,8.00
2023-03-02T22:31:42.852Z,7.68
2023-03-02T22:36:44.873Z,8.70
2023-03-02T22:41:47.118Z,7.75
2023-03-02T22:46:49.191Z,9.30
2023-03-02T22:51:51.069Z,8.98
2023-03-02T22:56:53.306Z,9.60
2023-03-02T23:02:01.494Z,9.07
2023-03-02T23:07:13.382Z,9.95
2023-03-02T23:12:19.330Z,9.27
2023-03-02T23:17:21.911Z,10.55
2023-03-02T23:22:28.571Z,8.98
2023-03-02T23:27:30.428Z,10.57
2023-03-02T23:32:32.038Z,9.48
2023-03-02T23:37:33.503Z,9.35
2023-03-02T23:42:34.927Z,9.90
2023-03-02T23:47:37.039Z,11.15
2023-03-02T23:52:39.740Z,9.93
2023-03-02T23:57:41.232Z,10.15
